Time;durP1;ratioP1;P1;durP2;ratioP2;P2;SDS_P1;SDS_P2;PMS_P1;PMS_P2;Temp;Humidity;BMP_temperature;BMP_pressure;BME280_temperature;BME280_humidity;BME280_pressure;Samples;Min_cycle;Max_cycle;Signal;HPM_P1;HPM_P2
2022/10/14 00:03:43;;;;;;;5.80;3.63;;;;;;;;;;10459263;28;20222;-70
2022/10/14 00:08:46;;;;;;;4.70;3.20;;;;;;;;;;10461479;28;20206;-69
2022/10/14 00:13:51;;;;;;;5.60;3.40;;;;;;;;;;10455282;28;20287;-68
2022/10/14 00:18:52;;;;;;;3.15;2.95;;;;;;;;;;10457366;28;20214;-69
2022/10/14 00:23:53;;;;;;;3.97;3.58;;;;;;;;;;10455908;28;20725;-69
2022/10/14 00:28:56;;;;;;;3.13;2.92;;;;;;;;;;10457255;28;20211;-69
2022/10/14 00:34:00;;;;;;;5.13;3.47;;;;;;;;;;10462266;28;20206;-69
2022/10/14 00:39:01;;;;;;;4.18;3.72;;;;;;;;;;10455957;28;20223;-69
2022/10/14 00:44:14;;;;;;;4.60;3.88;;;;;;;;;;10459093;28;20647;-69
2022/10/14 00:49:15;;;;;;;4.18;3.67;;;;;;;;;;10439299;28;20233;-69
2022/10/14 00:54:17;;;;;;;4.15;3.72;;;;;;;;;;10461078;28;20240;-68
2022/10/14 00:59:19;;;;;;;7.03;4.35;;;;;;;;;;10452018;28;20311;-69
2022/10/14 01:04:20;;;;;;;5.32;3.80;;;;;;;;;;10456651;28;20582;-69
2022/10/14 01:09:28;;;;;;;7.47;4.30;;;;;;;;;;10466764;28;20214;-69
2022/10/14 01:14:48;;;;;;;7.32;3.60;;;;;;;;;;10462677;28;20218;-67
2022/10/14 01:19:57;;;;;;;3.42;3.22;;;;;;;;;;10461700;28;20246;-69
2022/10/14 01:25:07;;;;;;;4.93;3.60;;;;;;;;;;10464498;28;20710;-68
2022/10/14 01:30:11;;;;;;;3.95;3.65;;;;;;;;;;10470135;28;20214;-69
2022/10/14 01:35:13;;;;;;;4.13;3.72;;;;;;;;;;10463043;28;20265;-68
2022/10/14 01:40:17;;;;;;;3.92;3.53;;;;;;;;;;10467461;28;20190;-68
2022/10/14 01:45:20;;;;;;;6.03;4.25;;;;;;;;;;10464346;28;20225;-69
2022/10/14 01:50:23;;;;;;;4.95;3.95;;;;;;;;;;10466463;28;20183;-68
2022/10/14 01:55:26;;;;;;;4.38;3.97;;;;;;;;;;10463888;28;20198;-69
2022/10/14 02:00:28;;;;;;;3.65;3.20;;;;;;;;;;10464169;28;20280;-70
2022/10/14 02:05:37;;;;;;;5.55;4.05;;;;;;;;;;10464870;28;20229;-70
2022/10/14 02:10:56;;;;;;;4.22;3.60;;;;;;;;;;10461447;28;20227;-70
2022/10/14 02:16:07;;;;;;;7.70;4.07;;;;;;;;;;10463774;28;20228;-69
2022/10/14 02:21:09;;;;;;;4.55;4.13;;;;;;;;;;10460146;28;20218;-70
2022/10/14 02:26:10;;;;;;;6.82;4.55;;;;;;;;;;10457920;28;20317;-69
2022/10/14 02:31:14;;;;;;;4.72;4.28;;;;;;;;;;10460416;28;20685;-69
2022/10/14 02:36:19;;;;;;;7.35;4.53;;;;;;;;;;10461302;28;20693;-69
2022/10/14 02:41:23;;;;;;;4.82;3.92;;;;;;;;;;10455518;28;20302;-69
2022/10/14 02:46:24;;;;;;;7.22;5.40;;;;;;;;;;10468386;28;20656;-69
2022/10/14 02:51:25;;;;;;;8.90;4.95;;;;;;;;;;10459055;28;20214;-69
2022/10/14 02:56:26;;;;;;;12.02;4.68;;;;;;;;;;10465061;28;20844;-69
2022/10/14 03:01:28;;;;;;;8.15;4.35;;;;;;;;;;10463619;28;20982;-69
2022/10/14 03:06:29;;;;;;;6.50;4.82;;;;;;;;;;10463103;28;20229;-70
2022/10/14 03:11:33;;;;;;;7.50;5.28;;;;;;;;;;10459900;28;20269;-69
2022/10/14 03:16:39;;;;;;;7.47;5.30;;;;;;;;;;10475577;28;20218;-68
2022/10/14 03:21:40;;;;;;;8.48;4.95;;;;;;;;;;10462170;28;20272;-69
2022/10/14 03:26:48;;;;;;;4.85;4.35;;;;;;;;;;10443390;28;20225;-69
2022/10/14 03:31:53;;;;;;;6.95;4.97;;;;;;;;;;10459504;28;20572;-69
2022/10/14 03:37:23;;;;;;;8.05;5.18;;;;;;;;;;10457470;28;20940;-69
2022/10/14 03:42:27;;;;;;;6.90;4.90;;;;;;;;;;10456467;28;20226;-69
2022/10/14 03:47:29;;;;;;;11.35;5.25;;;;;;;;;;10465465;28;20269;-69
2022/10/14 03:52:31;;;;;;;8.30;5.03;;;;;;;;;;10460762;28;20287;-69
2022/10/14 03:57:40;;;;;;;5.75;4.95;;;;;;;;;;10458769;28;20215;-69
2022/10/14 04:02:42;;;;;;;9.25;4.93;;;;;;;;;;10455788;28;20309;-69
2022/10/14 04:07:59;;;;;;;6.88;4.45;;;;;;;;;;10458390;28;20206;-69
2022/10/14 04:13:00;;;;;;;5.32;4.38;;;;;;;;;;10457481;28;20226;-69
2022/10/14 04:18:09;;;;;;;7.88;4.13;;;;;;;;;;10457106;28;20231;-69
2022/10/14 04:23:12;;;;;;;7.40;5.13;;;;;;;;;;10457640;28;20215;-69
2022/10/14 04:28:15;;;;;;;6.07;4.78;;;;;;;;;;10454057;28;20305;-69
2022/10/14 04:33:30;;;;;;;5.07;4.13;;;;;;;;;;10465467;28;20265;-70
2022/10/14 04:38:39;;;;;;;4.72;3.83;;;;;;;;;;10455423;28;21103;-69
2022/10/14 04:43:43;;;;;;;5.43;4.35;;;;;;;;;;10460379;28;20226;-69
2022/10/14 04:48:55;;;;;;;7.57;4.93;;;;;;;;;;10459279;28;21055;-69
2022/10/14 04:54:01;;;;;;;5.68;4.45;;;;;;;;;;10467494;28;20230;-69
2022/10/14 04:59:10;;;;;;;6.05;4.45;;;;;;;;;;10468511;28;20718;-69
2022/10/14 05:04:26;;;;;;;8.07;4.45;;;;;;;;;;10466072;28;20245;-68
2022/10/14 05:09:27;;;;;;;6.00;4.38;;;;;;;;;;10460916;28;20217;-69
2022/10/14 05:14:28;;;;;;;7.13;5.00;;;;;;;;;;10441569;28;20308;-70
2022/10/14 05:19:41;;;;;;;7.35;5.78;;;;;;;;;;10470415;28;20222;-70
2022/10/14 05:24:42;;;;;;;6.93;4.78;;;;;;;;;;10463615;28;20631;-70
2022/10/14 05:29:43;;;;;;;9.80;4.90;;;;;;;;;;10456606;28;20202;-69
2022/10/14 05:34:45;;;;;;;6.15;4.85;;;;;;;;;;10440538;28;20214;-69
2022/10/14 05:39:54;;;;;;;6.28;4.70;;;;;;;;;;10457487;28;20220;-70
2022/10/14 05:44:58;;;;;;;9.57;5.43;;;;;;;;;;10456517;28;20225;-70
2022/10/14 05:50:02;;;;;;;8.38;4.57;;;;;;;;;;10449811;28;20207;-70
2022/10/14 05:55:04;;;;;;;9.60;5.45;;;;;;;;;;10466180;28;20931;-70
2022/10/14 06:00:07;;;;;;;10.93;4.88;;;;;;;;;;10461547;28;20219;-70
2022/10/14 06:05:18;;;;;;;10.60;5.00;;;;;;;;;;10460524;28;20218;-69
2022/10/14 06:10:19;;;;;;;10.18;5.82;;;;;;;;;;10461112;28;20266;-69
2022/10/14 06:15:20;;;;;;;9.32;5.35;;;;;;;;;;10456174;28;20198;-69
2022/10/14 06:20:22;;;;;;;8.05;5.35;;;;;;;;;;10463828;28;20221;-69
2022/10/14 06:25:23;;;;;;;7.55;5.25;;;;;;;;;;10462530;28;20256;-69
2022/10/14 06:30:24;;;;;;;7.18;5.47;;;;;;;;;;10462715;28;20183;-69
2022/10/14 06:35:25;;;;;;;15.02;6.78;;;;;;;;;;10461150;28;21056;-69
2022/10/14 06:40:26;;;;;;;8.38;6.00;;;;;;;;;;10459893;28;20221;-69
2022/10/14 06:45:27;;;;;;;11.15;6.15;;;;;;;;;;10458518;28;20229;-69
2022/10/14 06:50:28;;;;;;;8.45;6.03;;;;;;;;;;10459798;28;20214;-70
2022/10/14 06:55:29;;;;;;;10.85;7.25;;;;;;;;;;10456915;28;20222;-69
2022/10/14 07:00:31;;;;;;;11.65;6.78;;;;;;;;;;10458832;28;20229;-69
2022/10/14 07:05:32;;;;;;;17.50;6.78;;;;;;;;;;10461481;28;20308;-68
2022/10/14 07:10:33;;;;;;;6.75;5.72;;;;;;;;;;10457840;28;20229;-69
2022/10/14 07:15:34;;;;;;;10.43;6.32;;;;;;;;;;10462558;28;20218;-69
2022/10/14 07:20:35;;;;;;;15.15;6.85;;;;;;;;;;10457720;28;20225;-68
2022/10/14 07:25:37;;;;;;;13.10;7.90;;;;;;;;;;10459950;28;20360;-69
2022/10/14 07:30:38;;;;;;;13.23;7.47;;;;;;;;;;10458524;28;20252;-69
2022/10/14 07:35:39;;;;;;;13.35;7.97;;;;;;;;;;10456607;28;20300;-68
2022/10/14 07:40:40;;;;;;;12.77;8.20;;;;;;;;;;10451380;28;20231;-69
2022/10/14 07:45:45;;;;;;;12.73;9.13;;;;;;;;;;10454208;28;20309;-69
2022/10/14 07:50:49;;;;;;;12.15;8.05;;;;;;;;;;10448697;28;20752;-69
2022/10/14 07:55:51;;;;;;;14.77;9.63;;;;;;;;;;10451715;28;20291;-69
2022/10/14 08:00:52;;;;;;;16.10;8.85;;;;;;;;;;10454921;28;20210;-69
2022/10/14 08:06:00;;;;;;;14.38;8.68;;;;;;;;;;10454609;28;20702;-69
2022/10/14 08:11:12;;;;;;;19.17;8.43;;;;;;;;;;10456060;28;20223;-68
2022/10/14 08:16:18;;;;;;;15.13;8.80;;;;;;;;;;10462856;28;20753;-69
2022/10/14 08:21:20;;;;;;;13.50;8.63;;;;;;;;;;10462188;28;20682;-68
2022/10/14 08:26:30;;;;;;;14.48;8.90;;;;;;;;;;10443134;28;20244;-69
2022/10/14 08:31:32;;;;;;;13.82;8.90;;;;;;;;;;10464416;28;20301;-68
2022/10/14 08:36:33;;;;;;;18.50;9.88;;;;;;;;;;10466686;28;20209;-69
2022/10/14 08:41:40;;;;;;;14.93;9.27;;;;;;;;;;10467990;28;20222;-69
2022/10/14 08:47:01;;;;;;;22.55;9.75;;;;;;;;;;10466524;28;20227;-69
2022/10/14 08:52:07;;;;;;;19.70;11.52;;;;;;;;;;10463438;28;20309;-69
2022/10/14 08:57:13;;;;;;;21.70;11.00;;;;;;;;;;10463033;28;20225;-69
2022/10/14 09:02:23;;;;;;;19.63;9.48;;;;;;;;;;10458967;28;20241;-69
2022/10/14 09:07:24;;;;;;;14.30;8.38;;;;;;;;;;10464902;28;20226;-69
2022/10/14 09:12:27;;;;;;;16.25;9.25;;;;;;;;;;10465701;28;20415;-69
2022/10/14 09:17:34;;;;;;;16.63;8.65;;;;;;;;;;10459278;28;20223;-68
2022/10/14 09:22:35;;;;;;;17.30;9.13;;;;;;;;;;10461134;28;20434;-69
2022/10/14 09:27:37;;;;;;;12.68;8.48;;;;;;;;;;10462291;28;21186;-69
2022/10/14 09:32:44;;;;;;;16.30;8.15;;;;;;;;;;10462880;28;20214;-69
2022/10/14 09:37:45;;;;;;;12.18;8.32;;;;;;;;;;10465470;28;20213;-69
2022/10/14 09:42:52;;;;;;;12.13;8.05;;;;;;;;;;10457943;28;20221;-69
2022/10/14 09:47:58;;;;;;;14.43;8.52;;;;;;;;;;10462258;28;20219;-69
2022/10/14 09:53:03;;;;;;;12.88;8.25;;;;;;;;;;10462655;28;20218;-69
2022/10/14 09:58:05;;;;;;;10.25;7.80;;;;;;;;;;10456047;28;21021;-69
2022/10/14 10:03:07;;;;;;;13.63;8.77;;;;;;;;;;10458990;28;20333;-69
2022/10/14 10:08:16;;;;;;;11.98;8.25;;;;;;;;;;10458495;28;20612;-69
2022/10/14 10:13:21;;;;;;;10.05;7.15;;;;;;;;;;10459192;28;20233;-69
2022/10/14 10:18:23;;;;;;;9.25;7.07;;;;;;;;;;10456762;28;20229;-68
2022/10/14 10:23:25;;;;;;;7.80;6.20;;;;;;;;;;10457071;28;20321;-70
2022/10/14 10:28:30;;;;;;;9.88;6.88;;;;;;;;;;10458578;28;20961;-68
2022/10/14 10:33:39;;;;;;;7.57;5.55;;;;;;;;;;10457270;28;20235;-68
2022/10/14 10:39:01;;;;;;;7.43;5.40;;;;;;;;;;10457695;28;20249;-68
2022/10/14 10:44:21;;;;;;;5.20;4.80;;;;;;;;;;10436773;28;20226;-69
2022/10/14 10:49:25;;;;;;;4.57;4.15;;;;;;;;;;10455259;28;20210;-69
2022/10/14 10:54:39;;;;;;;2.50;2.38;;;;;;;;;;10439865;28;20265;-70
2022/10/14 10:59:47;;;;;;;3.92;3.47;;;;;;;;;;10453206;28;20864;-69
2022/10/14 11:05:03;;;;;;;3.00;2.80;;;;;;;;;;10452475;28;20246;-69
2022/10/14 11:15:41;;;;;;;2.25;2.15;;;;;;;;;;10461564;28;20214;-69
2022/10/14 11:20:42;;;;;;;3.33;2.60;;;;;;;;;;10461005;28;20722;-69
2022/10/14 11:26:00;;;;;;;2.78;2.65;;;;;;;;;;10460364;28;20229;-70
2022/10/14 11:31:24;;;;;;;3.90;3.60;;;;;;;;;;10453275;28;20217;-70
2022/10/14 11:36:31;;;;;;;3.60;3.40;;;;;;;;;;10456383;28;20229;-69
2022/10/14 11:41:49;;;;;;;3.03;2.83;;;;;;;;;;10455450;28;20222;-69
2022/10/14 11:46:53;;;;;;;2.40;2.30;;;;;;;;;;10461204;28;20233;-69
2022/10/14 11:52:11;;;;;;;3.20;2.65;;;;;;;;;;10452985;28;20590;-69
2022/10/14 11:57:24;;;;;;;2.67;2.55;;;;;;;;;;10453774;28;20683;-70
2022/10/14 12:02:25;;;;;;;4.80;2.78;;;;;;;;;;10456501;28;20238;-69
2022/10/14 12:07:30;;;;;;;2.67;2.47;;;;;;;;;;10452347;28;20280;-70
2022/10/14 12:12:32;;;;;;;1.95;1.85;;;;;;;;;;10453040;28;20214;-69
2022/10/14 12:17:38;;;;;;;1.92;1.83;;;;;;;;;;10449912;28;20237;-69
2022/10/14 12:22:40;;;;;;;1.80;1.77;;;;;;;;;;10436125;28;20245;-70
2022/10/14 12:27:41;;;;;;;1.77;1.67;;;;;;;;;;10451566;28;20799;-69
2022/10/14 12:32:59;;;;;;;3.13;1.40;;;;;;;;;;10453325;28;20217;-70
2022/10/14 12:38:03;;;;;;;1.20;1.20;;;;;;;;;;10455653;28;20689;-69
2022/10/14 12:43:14;;;;;;;1.38;1.38;;;;;;;;;;10456925;28;20234;-70
2022/10/14 12:48:18;;;;;;;0.90;0.90;;;;;;;;;;10454666;28;20229;-70
2022/10/14 12:53:24;;;;;;;1.08;1.00;;;;;;;;;;10446108;28;20714;-70
2022/10/14 12:58:31;;;;;;;1.23;1.23;;;;;;;;;;10445403;28;20213;-70
2022/10/14 13:03:40;;;;;;;0.90;0.90;;;;;;;;;;10455437;28;20264;-70
2022/10/14 13:08:41;;;;;;;1.25;1.13;;;;;;;;;;10462372;28;20217;-69
2022/10/14 13:13:52;;;;;;;1.27;1.27;;;;;;;;;;10464124;28;20279;-70
2022/10/14 13:18:53;;;;;;;2.75;1.52;;;;;;;;;;10447112;28;20543;-70
2022/10/14 13:23:54;;;;;;;0.98;0.98;;;;;;;;;;10461277;28;20581;-68
2022/10/14 13:29:04;;;;;;;4.55;0.82;;;;;;;;;;10461171;28;20218;-65
2022/10/14 13:34:11;;;;;;;1.08;1.08;;;;;;;;;;10454207;28;20225;-66
2022/10/14 13:39:12;;;;;;;0.77;0.77;;;;;;;;;;10459903;28;20222;-69
2022/10/14 13:44:13;;;;;;;0.73;0.73;;;;;;;;;;10461159;28;20229;-67
2022/10/14 13:49:17;;;;;;;1.08;0.70;;;;;;;;;;10459712;28;20219;-65
2022/10/14 13:54:25;;;;;;;0.40;0.40;;;;;;;;;;10461504;28;20987;-66
2022/10/14 13:59:26;;;;;;;0.75;0.73;;;;;;;;;;10457968;28;20219;-66
2022/10/14 14:04:30;;;;;;;0.50;0.50;;;;;;;;;;10459204;28;20222;-66
2022/10/14 14:09:34;;;;;;;0.45;0.45;;;;;;;;;;10459193;28;20930;-67
2022/10/14 14:14:43;;;;;;;0.40;0.40;;;;;;;;;;10457310;28;20219;-68
2022/10/14 14:19:47;;;;;;;0.43;0.40;;;;;;;;;;10465860;28;20226;-68
2022/10/14 14:24:48;;;;;;;1.55;0.38;;;;;;;;;;10462297;28;20225;-70
2022/10/14 14:29:50;;;;;;;3.63;0.40;;;;;;;;;;10459225;28;20698;-68
2022/10/14 14:34:51;;;;;;;0.30;0.30;;;;;;;;;;10461195;28;20245;-68
2022/10/14 14:40:15;;;;;;;0.38;0.20;;;;;;;;;;10457003;28;20222;-68
2022/10/14 14:45:18;;;;;;;0.40;0.40;;;;;;;;;;10456930;28;20238;-68
2022/10/14 14:50:24;;;;;;;0.20;0.20;;;;;;;;;;10455069;28;20187;-68
2022/10/14 14:55:40;;;;;;;0.30;0.30;;;;;;;;;;10459672;28;20221;-67
2022/10/14 15:00:47;;;;;;;0.50;0.50;;;;;;;;;;10461863;28;20289;-67
2022/10/14 15:05:49;;;;;;;0.30;0.30;;;;;;;;;;10453899;28;20272;-68
2022/10/14 15:10:52;;;;;;;0.22;0.22;;;;;;;;;;10451411;28;20218;-68
2022/10/14 15:15:54;;;;;;;0.80;0.50;;;;;;;;;;10454364;28;20218;-68
2022/10/14 15:21:03;;;;;;;0.40;0.40;;;;;;;;;;10458989;28;20215;-69
2022/10/14 15:26:20;;;;;;;0.50;0.50;;;;;;;;;;10453702;28;20317;-68
2022/10/14 15:31:24;;;;;;;0.35;0.35;;;;;;;;;;10457056;28;20214;-68
2022/10/14 15:36:25;;;;;;;0.47;0.30;;;;;;;;;;10455448;28;20221;-69
2022/10/14 15:41:30;;;;;;;0.63;0.60;;;;;;;;;;10454193;28;20230;-69
2022/10/14 15:51:51;;;;;;;3.95;3.53;;;;;;;;;;10450072;28;21008;-68
2022/10/14 15:56:54;;;;;;;3.30;2.85;;;;;;;;;;10456854;28;20600;-68
2022/10/14 16:01:57;;;;;;;1.30;0.90;;;;;;;;;;10457073;28;20230;-70
2022/10/14 16:06:58;;;;;;;0.60;0.60;;;;;;;;;;10451965;28;20256;-68
2022/10/14 16:11:59;;;;;;;0.45;0.40;;;;;;;;;;10449417;28;20221;-68
2022/10/14 16:17:01;;;;;;;0.40;0.40;;;;;;;;;;10449738;28;20218;-69
2022/10/14 16:22:02;;;;;;;0.40;0.40;;;;;;;;;;10447797;28;20217;-69
2022/10/14 16:27:03;;;;;;;0.65;0.60;;;;;;;;;;10452417;28;20236;-69
2022/10/14 16:32:05;;;;;;;4.22;1.00;;;;;;;;;;10453089;28;20992;-70
2022/10/14 16:37:06;;;;;;;3.85;2.13;;;;;;;;;;10455328;28;20222;-69
2022/10/14 16:42:07;;;;;;;5.00;4.57;;;;;;;;;;10463119;28;20858;-69
2022/10/14 16:47:15;;;;;;;2.53;2.30;;;;;;;;;;10461543;28;20230;-71
2022/10/14 16:52:16;;;;;;;1.52;1.42;;;;;;;;;;10467209;28;20306;-70
2022/10/14 16:57:17;;;;;;;1.02;1.02;;;;;;;;;;10466138;28;20744;-73
2022/10/14 17:02:18;;;;;;;1.10;1.10;;;;;;;;;;10467810;28;20221;-73
2022/10/14 17:07:19;;;;;;;1.30;1.30;;;;;;;;;;10468287;28;20229;-73
2022/10/14 17:12:20;;;;;;;1.45;1.35;;;;;;;;;;10464690;28;20704;-69
2022/10/14 17:17:23;;;;;;;0.85;0.85;;;;;;;;;;10467707;28;20226;-73
2022/10/14 17:22:24;;;;;;;1.05;1.05;;;;;;;;;;10463350;28;20218;-69
2022/10/14 17:27:25;;;;;;;0.95;0.95;;;;;;;;;;10462974;28;20227;-67
2022/10/14 17:32:27;;;;;;;1.58;1.10;;;;;;;;;;10462735;28;21270;-69
2022/10/14 17:37:29;;;;;;;1.50;1.40;;;;;;;;;;10457854;28;20817;-68
2022/10/14 17:42:30;;;;;;;1.20;1.20;;;;;;;;;;10462441;28;20272;-66
2022/10/14 17:47:32;;;;;;;1.30;1.30;;;;;;;;;;10445245;28;20238;-70
2022/10/14 17:52:33;;;;;;;1.10;1.10;;;;;;;;;;10460193;28;20218;-69
2022/10/14 17:57:34;;;;;;;1.02;0.90;;;;;;;;;;10459417;28;20237;-68
2022/10/14 18:02:35;;;;;;;0.95;0.95;;;;;;;;;;10461769;28;20233;-69
2022/10/14 18:07:36;;;;;;;1.10;1.10;;;;;;;;;;10460020;28;20258;-70
2022/10/14 18:12:38;;;;;;;0.88;0.88;;;;;;;;;;10456114;28;20218;-68
2022/10/14 18:17:39;;;;;;;1.25;1.15;;;;;;;;;;10456678;28;20226;-66
2022/10/14 18:22:40;;;;;;;1.17;1.17;;;;;;;;;;10451885;28;20753;-67
2022/10/14 18:27:41;;;;;;;1.08;1.08;;;;;;;;;;10457792;28;20337;-66
2022/10/14 18:32:42;;;;;;;1.63;1.30;;;;;;;;;;10460347;28;20218;-67
2022/10/14 18:37:43;;;;;;;1.30;1.20;;;;;;;;;;10454742;28;20219;-70
2022/10/14 18:42:45;;;;;;;4.00;1.50;;;;;;;;;;10455178;28;20221;-70
2022/10/14 18:47:46;;;;;;;0.98;0.98;;;;;;;;;;10461662;28;20222;-66
2022/10/14 18:52:47;;;;;;;1.00;1.00;;;;;;;;;;10456648;28;20245;-69
2022/10/14 18:57:48;;;;;;;2.20;1.23;;;;;;;;;;10460604;28;20321;-71
2022/10/14 19:02:49;;;;;;;1.40;1.30;;;;;;;;;;10460227;28;20289;-70
2022/10/14 19:07:50;;;;;;;0.95;0.95;;;;;;;;;;10458658;28;20218;-71
2022/10/14 19:12:51;;;;;;;1.13;1.13;;;;;;;;;;10454197;28;20226;-68
2022/10/14 19:17:57;;;;;;;1.30;1.20;;;;;;;;;;10454764;28;20877;-68
2022/10/14 19:22:58;;;;;;;3.20;1.20;;;;;;;;;;10448080;28;20217;-68
2022/10/14 19:27:59;;;;;;;1.10;1.08;;;;;;;;;;10456472;28;20217;-68
2022/10/14 19:33:00;;;;;;;0.90;0.90;;;;;;;;;;10460182;28;20210;-69
2022/10/14 19:38:01;;;;;;;1.42;1.33;;;;;;;;;;10452635;28;20221;-69
2022/10/14 19:43:03;;;;;;;3.22;1.27;;;;;;;;;;10451798;28;20229;-68
2022/10/14 19:48:05;;;;;;;1.25;1.25;;;;;;;;;;10452172;28;20222;-69
2022/10/14 19:53:06;;;;;;;1.10;1.10;;;;;;;;;;10456934;28;20212;-68
2022/10/14 19:58:07;;;;;;;1.10;1.10;;;;;;;;;;10458671;28;20210;-68
2022/10/14 20:03:08;;;;;;;1.25;1.17;;;;;;;;;;10457248;28;20218;-68
2022/10/14 20:08:09;;;;;;;1.00;0.98;;;;;;;;;;10458627;28;20307;-69
2022/10/14 20:13:11;;;;;;;1.90;0.98;;;;;;;;;;10457337;28;20214;-68
2022/10/14 20:18:16;;;;;;;1.23;1.23;;;;;;;;;;10452858;28;20300;-68
2022/10/14 20:23:18;;;;;;;1.20;1.15;;;;;;;;;;10458170;28;20312;-68
2022/10/14 20:28:19;;;;;;;2.20;1.40;;;;;;;;;;10444466;28;20267;-68
2022/10/14 20:33:20;;;;;;;1.90;1.80;;;;;;;;;;10456669;28;20218;-69
2022/10/14 20:38:21;;;;;;;1.77;1.67;;;;;;;;;;10457471;28;20214;-69
2022/10/14 20:43:22;;;;;;;1.55;1.45;;;;;;;;;;10455545;28;20226;-69
2022/10/14 20:48:23;;;;;;;1.35;1.35;;;;;;;;;;10460017;28;20218;-69
2022/10/14 20:53:27;;;;;;;14.43;1.50;;;;;;;;;;10457984;28;20230;-68
2022/10/14 20:58:28;;;;;;;1.30;1.30;;;;;;;;;;10457058;28;20225;-68
2022/10/14 21:03:29;;;;;;;1.92;1.48;;;;;;;;;;10458739;28;20234;-67
2022/10/14 21:08:30;;;;;;;1.98;1.30;;;;;;;;;;10461212;28;20262;-67
2022/10/14 21:13:32;;;;;;;1.38;1.27;;;;;;;;;;10456961;28;20226;-68
2022/10/14 21:18:33;;;;;;;3.72;1.75;;;;;;;;;;10458177;28;20217;-68
2022/10/14 21:23:34;;;;;;;2.28;2.17;;;;;;;;;;10459080;28;20233;-69
2022/10/14 21:28:35;;;;;;;2.65;2.53;;;;;;;;;;10468629;28;20309;-68
2022/10/14 21:33:36;;;;;;;2.40;1.85;;;;;;;;;;10462868;28;20218;-69
2022/10/14 21:38:38;;;;;;;2.97;2.47;;;;;;;;;;10465831;28;20215;-69
2022/10/14 21:43:39;;;;;;;1.98;1.88;;;;;;;;;;10462184;28;20269;-68
2022/10/14 21:48:41;;;;;;;2.78;2.30;;;;;;;;;;10467481;28;20264;-69
2022/10/14 21:53:43;;;;;;;3.65;2.33;;;;;;;;;;10461168;28;20214;-68
2022/10/14 21:58:44;;;;;;;2.67;2.15;;;;;;;;;;10462657;28;20207;-68
2022/10/14 22:03:45;;;;;;;2.33;2.17;;;;;;;;;;10463424;28;20305;-68
2022/10/14 22:08:47;;;;;;;1.83;1.73;;;;;;;;;;10461478;28;20244;-68
2022/10/14 22:13:49;;;;;;;2.10;2.00;;;;;;;;;;10463217;28;20218;-68
2022/10/14 22:18:51;;;;;;;2.83;2.22;;;;;;;;;;10465302;28;20328;-68
2022/10/14 22:23:52;;;;;;;2.63;2.33;;;;;;;;;;10459200;28;20254;-68
2022/10/14 22:29:00;;;;;;;2.65;2.53;;;;;;;;;;10464558;28;20218;-68
2022/10/14 22:34:03;;;;;;;2.40;2.30;;;;;;;;;;10462023;28;20210;-68
2022/10/14 22:39:05;;;;;;;3.10;2.22;;;;;;;;;;10454617;28;20222;-68
2022/10/14 22:44:08;;;;;;;2.55;2.40;;;;;;;;;;10461322;28;20235;-68
2022/10/14 22:49:09;;;;;;;2.28;2.08;;;;;;;;;;10450696;28;21184;-68
2022/10/14 22:54:10;;;;;;;2.30;2.20;;;;;;;;;;10457104;28;20644;-68
2022/10/14 22:59:11;;;;;;;2.88;2.30;;;;;;;;;;10462298;28;21078;-68
2022/10/14 23:04:12;;;;;;;1.90;1.88;;;;;;;;;;10462690;28;20830;-68
2022/10/14 23:09:14;;;;;;;2.72;2.40;;;;;;;;;;10457465;28;20240;-68
2022/10/14 23:14:15;;;;;;;5.07;2.15;;;;;;;;;;10458689;28;20642;-68
2022/10/14 23:19:16;;;;;;;3.28;2.50;;;;;;;;;;10462438;28;20228;-68
2022/10/14 23:24:17;;;;;;;2.47;2.35;;;;;;;;;;10459001;28;20238;-68
2022/10/14 23:29:18;;;;;;;4.25;2.70;;;;;;;;;;10454792;28;20237;-68
2022/10/14 23:34:19;;;;;;;2.83;2.63;;;;;;;;;;10458570;28;20755;-69
2022/10/14 23:39:20;;;;;;;2.78;2.67;;;;;;;;;;10464385;28;20221;-68
2022/10/14 23:44:21;;;;;;;3.42;2.50;;;;;;;;;;10453432;28;20256;-68
2022/10/14 23:49:23;;;;;;;3.05;2.55;;;;;;;;;;10462161;28;20311;-68
2022/10/14 23:54:24;;;;;;;2.53;2.42;;;;;;;;;;10456383;28;20698;-69
2022/10/14 23:59:25;;;;;;;2.80;2.60;;;;;;;;;;10455854;28;20229;-69
